createdAt,value
2023-01-27T00:01:18.711Z,102925.63
2023-01-27T00:03:46.981Z,102933.78
2023-01-27T00:06:16.733Z,102930.41
2023-01-27T00:08:44.806Z,102927.06
2023-01-27T00:11:30.259Z,102917.53
2023-01-27T00:13:58.334Z,102920.41
2023-01-27T00:16:26.639Z,102913.47
2023-01-27T00:18:54.795Z,102914.44
2023-01-27T00:21:38.096Z,102911.97
2023-01-27T00:24:24.332Z,102919.22
2023-01-27T00:26:52.510Z,102914.22
2023-01-27T00:29:20.692Z,102907.47
2023-01-27T00:32:06.479Z,102908.66
2023-01-27T00:34:34.733Z,102913.31
2023-01-27T00:37:06.730Z,102913.47
2023-01-27T00:39:35.018Z,102915.34
2023-01-27T00:42:03.108Z,102905.75
2023-01-27T00:44:31.391Z,102898.84
2023-01-27T00:46:59.772Z,102899.78
2023-01-27T00:49:27.853Z,102887.41
2023-01-27T00:51:56.290Z,102884.72
2023-01-27T00:54:25.877Z,102895.19
2023-01-27T00:56:53.999Z,102896.03
2023-01-27T00:59:23.234Z,102889.72
2023-01-27T01:01:51.494Z,102879.78
2023-01-27T01:04:19.848Z,102875.16
2023-01-27T01:06:49.048Z,102868.03
2023-01-27T01:09:17.363Z,102867.09
2023-01-27T01:11:49.094Z,102863.66
2023-01-27T01:14:17.600Z,102869.84
2023-01-27T01:16:45.990Z,102858.50
2023-01-27T01:19:17.705Z,102864.00
2023-01-27T01:21:47.520Z,102846.28
2023-01-27T01:24:16.411Z,102859.63
2023-01-27T01:26:59.845Z,102839.44
2023-01-27T01:29:33.340Z,102860.81
2023-01-27T01:32:01.827Z,102850.38
2023-01-27T01:34:30.810Z,102844.28
2023-01-27T01:36:59.029Z,102841.78
2023-01-27T01:39:29.666Z,102840.25
2023-01-27T01:41:57.958Z,102832.50
2023-01-27T01:44:28.050Z,102835.44
2023-01-27T01:47:01.168Z,102833.88
2023-01-27T01:49:34.656Z,102834.09
2023-01-27T01:52:07.811Z,102829.91
2023-01-27T01:54:39.987Z,102829.22
2023-01-27T01:57:12.025Z,102829.34
2023-01-27T01:59:44.842Z,102825.97
2023-01-27T02:02:19.744Z,102826.97
2023-01-27T02:04:55.130Z,102822.66
2023-01-27T02:07:29.856Z,102815.69
2023-01-27T02:10:00.945Z,102824.72
2023-01-27T02:12:29.358Z,102826.59
2023-01-27T02:15:07.536Z,102814.28
2023-01-27T02:17:37.487Z,102818.72
2023-01-27T02:20:10.837Z,102816.06
2023-01-27T02:22:48.575Z,102812.47
2023-01-27T02:25:25.437Z,102813.34
2023-01-27T02:27:55.418Z,102814.19
2023-01-27T02:30:23.603Z,102816.84
2023-01-27T02:32:52.233Z,102801.78
2023-01-27T02:35:33.118Z,102807.00
2023-01-27T02:38:02.271Z,102799.78
2023-01-27T02:40:31.891Z,102809.50
2023-01-27T02:43:03.414Z,102799.75
2023-01-27T02:45:31.641Z,102802.19
2023-01-27T02:47:59.920Z,102792.41
2023-01-27T02:50:28.288Z,102797.47
2023-01-27T02:52:56.767Z,102806.94
2023-01-27T02:55:25.329Z,102795.25
2023-01-27T02:57:53.477Z,102789.72
2023-01-27T03:00:23.292Z,102799.19
2023-01-27T03:02:51.655Z,102792.75
2023-01-27T03:05:19.844Z,102789.91
2023-01-27T03:07:47.949Z,102780.03
2023-01-27T03:10:16.208Z,102778.13
2023-01-27T03:12:45.775Z,102770.91
2023-01-27T03:15:31.497Z,102777.88
2023-01-27T03:18:17.647Z,102768.97
2023-01-27T03:20:48.365Z,102776.72
2023-01-27T03:23:19.381Z,102772.22
2023-01-27T03:25:49.887Z,102780.06
2023-01-27T03:28:18.039Z,102779.91
2023-01-27T03:30:46.515Z,102775.38
2023-01-27T03:33:16.496Z,102775.28
2023-01-27T03:35:49.547Z,102777.00
2023-01-27T03:38:35.670Z,102775.06
2023-01-27T03:41:22.124Z,102778.50
2023-01-27T03:44:07.290Z,102765.91
2023-01-27T03:46:35.430Z,102773.72
2023-01-27T03:49:05.491Z,102774.44
2023-01-27T03:51:33.603Z,102769.81
2023-01-27T03:54:02.200Z,102768.84
2023-01-27T03:56:30.571Z,102760.75
2023-01-27T03:58:58.853Z,102757.09
2023-01-27T04:01:27.808Z,102765.91
2023-01-27T04:04:13.819Z,102766.72
2023-01-27T04:06:58.634Z,102764.91
2023-01-27T04:09:29.281Z,102759.59
2023-01-27T04:12:00.682Z,102755.88
2023-01-27T04:14:31.864Z,102757.56
2023-01-27T04:17:02.454Z,102762.09
2023-01-27T04:19:30.898Z,102766.66
2023-01-27T04:22:02.791Z,102753.47
2023-01-27T04:24:34.348Z,102757.03
2023-01-27T04:27:05.734Z,102759.69
2023-01-27T04:29:36.638Z,102752.53
2023-01-27T04:32:06.163Z,102752.41
2023-01-27T04:34:34.345Z,102762.78
2023-01-27T04:37:05.064Z,102751.94
2023-01-27T04:39:33.469Z,102752.53
2023-01-27T04:42:01.848Z,102747.84
2023-01-27T04:44:30.128Z,102753.84
2023-01-27T04:46:58.475Z,102749.28
2023-01-27T04:49:27.385Z,102749.03
2023-01-27T04:51:55.674Z,102756.84
2023-01-27T04:54:25.313Z,102758.50
2023-01-27T04:56:58.559Z,102761.91
2023-01-27T04:59:27.120Z,102753.78
2023-01-27T05:01:55.426Z,102763.47
2023-01-27T05:04:23.655Z,102760.72
2023-01-27T05:06:51.742Z,102775.75
2023-01-27T05:09:19.958Z,102764.19
2023-01-27T05:11:49.554Z,102764.91
2023-01-27T05:14:17.763Z,102767.41
2023-01-27T05:16:45.916Z,102765.56
2023-01-27T05:19:14.075Z,102764.81
2023-01-27T05:21:43.494Z,102761.53
2023-01-27T05:24:12.059Z,102772.31
2023-01-27T05:26:40.778Z,102759.06
2023-01-27T05:29:10.957Z,102757.28
2023-01-27T05:31:39.428Z,102756.44
2023-01-27T05:34:07.914Z,102753.78
2023-01-27T05:36:36.176Z,102757.28
2023-01-27T05:39:04.417Z,102751.94
2023-01-27T05:41:35.089Z,102753.59
2023-01-27T05:44:03.397Z,102759.69
2023-01-27T05:46:34.286Z,102754.28
2023-01-27T05:49:05.607Z,102760.38
2023-01-27T05:51:35.810Z,102744.25
2023-01-27T05:54:04.915Z,102741.25
2023-01-27T05:56:36.051Z,102742.94
2023-01-27T05:59:04.511Z,102742.00
2023-01-27T06:01:37.543Z,102755.16
2023-01-27T06:04:07.219Z,102748.81
2023-01-27T06:06:36.245Z,102742.41
2023-01-27T06:09:05.732Z,102746.81
2023-01-27T06:11:35.897Z,102756.38
2023-01-27T06:14:06.128Z,102754.50
2023-01-27T06:16:36.031Z,102750.81
2023-01-27T06:19:04.462Z,102747.19
2023-01-27T06:21:33.462Z,102754.16
2023-01-27T06:24:01.954Z,102757.72
2023-01-27T06:26:30.216Z,102749.78
2023-01-27T06:28:58.975Z,102753.25
2023-01-27T06:31:29.862Z,102744.31
2023-01-27T06:33:59.449Z,102749.59
2023-01-27T06:36:27.765Z,102744.13
2023-01-27T06:38:55.958Z,102742.31
2023-01-27T06:41:25.011Z,102743.94
2023-01-27T06:43:54.417Z,102741.25
2023-01-27T06:46:22.729Z,102754.44
2023-01-27T06:48:51.238Z,102751.84
2023-01-27T06:51:20.781Z,102750.81
2023-01-27T06:53:49.007Z,102750.88
2023-01-27T06:56:17.592Z,102750.00
2023-01-27T06:58:46.120Z,102747.38
2023-01-27T07:01:14.361Z,102757.19
2023-01-27T07:03:44.720Z,102755.59
2023-01-27T07:06:15.227Z,102751.28
2023-01-27T07:08:47.074Z,102748.78
2023-01-27T07:11:15.407Z,102755.97
2023-01-27T07:13:43.649Z,102751.78
2023-01-27T07:16:12.026Z,102745.72
2023-01-27T07:18:40.428Z,102749.28
2023-01-27T07:21:08.535Z,102751.25
2023-01-27T07:23:36.593Z,102760.97
2023-01-27T07:26:19.295Z,102751.25
2023-01-27T07:28:53.196Z,102746.81
2023-01-27T07:31:21.434Z,102748.56
2023-01-27T07:33:49.668Z,102748.44
2023-01-27T07:36:17.811Z,102758.13
2023-01-27T07:38:46.029Z,102758.84
2023-01-27T07:41:15.833Z,102754.38
2023-01-27T07:43:44.232Z,102761.38
2023-01-27T07:46:12.581Z,102763.94
2023-01-27T07:48:40.691Z,102761.13
2023-01-27T07:51:13.058Z,102761.19
2023-01-27T07:53:41.048Z,102765.53
2023-01-27T07:56:12.125Z,102769.25
2023-01-27T07:58:44.611Z,102773.72
2023-01-27T08:01:14.084Z,102775.50
2023-01-27T08:03:42.535Z,102772.78
2023-01-27T08:06:12.374Z,102772.72
2023-01-27T08:08:41.081Z,102774.44
2023-01-27T08:11:13.182Z,102766.41
2023-01-27T08:13:43.439Z,102775.13
2023-01-27T08:16:14.474Z,102783.00
2023-01-27T08:18:43.172Z,102785.75
2023-01-27T08:21:12.709Z,102792.88
2023-01-27T08:23:41.037Z,102799.09
2023-01-27T08:26:09.211Z,102801.56
2023-01-27T08:28:39.026Z,102804.22
2023-01-27T08:31:12.280Z,102801.50
2023-01-27T08:33:42.041Z,102809.41
2023-01-27T08:36:12.757Z,102817.41
2023-01-27T08:38:41.990Z,102815.50
2023-01-27T08:41:12.236Z,102814.53
2023-01-27T08:43:40.589Z,102807.19
2023-01-27T08:46:11.238Z,102809.69
2023-01-27T08:48:40.026Z,102819.31
2023-01-27T08:51:09.443Z,102819.19
2023-01-27T08:53:38.312Z,102816.44
2023-01-27T08:56:08.654Z,102811.00
2023-01-27T08:58:36.859Z,102813.47
2023-01-27T09:01:07.841Z,102820.38
2023-01-27T09:03:37.878Z,102822.94
2023-01-27T09:06:08.802Z,102824.38
2023-01-27T09:08:37.328Z,102827.06
2023-01-27T09:11:10.864Z,102826.94
2023-01-27T09:13:39.146Z,102841.81
2023-01-27T09:16:07.703Z,102830.13
2023-01-27T09:18:37.991Z,102837.22
2023-01-27T09:21:07.004Z,102842.28
2023-01-27T09:23:35.960Z,102835.88
2023-01-27T09:26:03.996Z,102841.09
2023-01-27T09:28:32.179Z,102840.06
2023-01-27T09:31:01.014Z,102839.88
2023-01-27T09:33:29.098Z,102847.78
2023-01-27T09:36:04.194Z,102846.72
2023-01-27T09:38:38.790Z,102849.16
2023-01-27T09:41:28.999Z,102847.28
2023-01-27T09:44:17.490Z,102849.75
2023-01-27T09:47:04.963Z,102852.13
2023-01-27T09:49:51.274Z,102854.53
2023-01-27T09:52:47.596Z,102864.00
2023-01-27T09:55:23.434Z,102868.31
2023-01-27T09:57:58.813Z,102865.22
2023-01-27T10:00:37.633Z,102870.84
2023-01-27T10:03:26.472Z,102861.38
2023-01-27T10:06:20.198Z,102863.91
2023-01-27T10:09:10.948Z,102868.81
2023-01-27T10:11:47.262Z,102862.13
2023-01-27T10:14:24.005Z,102858.88
2023-01-27T10:17:17.675Z,102853.91
2023-01-27T10:20:03.459Z,102849.06
2023-01-27T10:22:43.109Z,102850.78
2023-01-27T10:25:26.126Z,102854.53
2023-01-27T10:27:58.620Z,102846.69
2023-01-27T10:30:36.006Z,102844.13
2023-01-27T10:33:17.009Z,102846.09
2023-01-27T10:35:52.516Z,102847.34
2023-01-27T10:38:34.220Z,102851.38
2023-01-27T10:41:18.042Z,102849.38
2023-01-27T10:43:54.304Z,102851.59
2023-01-27T10:46:32.484Z,102852.06
2023-01-27T10:49:05.915Z,102854.19
2023-01-27T10:51:38.133Z,102865.81
2023-01-27T10:54:14.033Z,102861.25
2023-01-27T10:56:49.269Z,102857.44
2023-01-27T10:59:24.098Z,102860.56
2023-01-27T11:01:57.663Z,102858.09
2023-01-27T11:04:34.500Z,102852.81
2023-01-27T11:07:03.013Z,102854.84
2023-01-27T11:09:35.441Z,102863.22
2023-01-27T11:12:07.557Z,102864.94
2023-01-27T11:14:46.800Z,102858.03
2023-01-27T11:17:19.010Z,102864.94
2023-01-27T11:19:59.850Z,102862.13
2023-01-27T11:22:35.302Z,102862.03
2023-01-27T11:25:09.013Z,102853.03
2023-01-27T11:27:55.165Z,102854.22
2023-01-27T11:30:29.414Z,102850.38
2023-01-27T11:33:03.580Z,102850.88
2023-01-27T11:35:31.775Z,102843.19
2023-01-27T11:38:14.557Z,102843.03
2023-01-27T11:40:45.964Z,102835.78
2023-01-27T11:43:19.490Z,102827.75
2023-01-27T11:45:48.037Z,102828.88
2023-01-27T11:48:21.108Z,102817.91
2023-01-27T11:50:50.936Z,102811.50
2023-01-27T11:53:25.597Z,102810.53
2023-01-27T11:55:58.577Z,102808.56
2023-01-27T11:58:34.379Z,102796.09
2023-01-27T12:01:05.774Z,102787.88
2023-01-27T12:03:58.534Z,102782.44
2023-01-27T12:06:35.789Z,102790.72
2023-01-27T12:09:04.028Z,102787.28
2023-01-27T12:11:33.942Z,102785.78
2023-01-27T12:14:07.135Z,102787.91
2023-01-27T12:16:46.561Z,102782.13
2023-01-27T12:19:24.020Z,102790.88
2023-01-27T12:21:55.367Z,102792.34
2023-01-27T12:24:32.106Z,102785.59
2023-01-27T12:27:01.716Z,102776.97
2023-01-27T12:29:41.077Z,102771.19
2023-01-27T12:32:18.465Z,102776.09
2023-01-27T12:34:50.661Z,102759.97
2023-01-27T12:37:23.993Z,102765.13
2023-01-27T12:39:57.348Z,102774.56
2023-01-27T12:42:40.346Z,102758.28
2023-01-27T12:45:22.267Z,102755.56
2023-01-27T12:47:59.248Z,102760.09
2023-01-27T12:50:30.253Z,102747.56
2023-01-27T12:53:13.966Z,102749.69
2023-01-27T12:55:45.261Z,102758.28
2023-01-27T13:01:06.428Z,102745.41
2023-01-27T13:03:45.099Z,102745.09
2023-01-27T13:06:23.195Z,102745.63
2023-01-27T13:08:53.947Z,102743.75
2023-01-27T13:11:45.967Z,102746.75
2023-01-27T13:14:22.617Z,102739.72
2023-01-27T13:16:58.651Z,102734.38
2023-01-27T13:19:37.428Z,102735.97
2023-01-27T13:22:07.703Z,102734.00
2023-01-27T13:24:42.138Z,102735.50
2023-01-27T13:27:15.785Z,102738.63
2023-01-27T13:29:51.137Z,102727.00
2023-01-27T13:32:25.806Z,102720.38
2023-01-27T13:35:01.911Z,102726.38
2023-01-27T13:37:34.625Z,102726.66
2023-01-27T13:40:07.732Z,102719.28
2023-01-27T13:42:42.625Z,102711.91
2023-01-27T13:45:16.907Z,102714.69
2023-01-27T13:47:52.862Z,102719.16
2023-01-27T13:50:28.314Z,102721.16
2023-01-27T13:52:59.388Z,102711.69
2023-01-27T13:55:43.737Z,102713.78
2023-01-27T13:58:22.810Z,102720.34
2023-01-27T14:01:03.916Z,102720.16
2023-01-27T14:03:47.449Z,102712.56
2023-01-27T14:06:28.369Z,102717.72
2023-01-27T14:09:08.882Z,102713.81
2023-01-27T14:11:45.988Z,102720.31
2023-01-27T14:14:29.289Z,102720.63
2023-01-27T14:17:17.055Z,102705.78
2023-01-27T14:20:05.051Z,102708.97
2023-01-27T14:22:43.383Z,102705.44
2023-01-27T14:25:22.857Z,102696.91
2023-01-27T14:27:57.535Z,102695.69
2023-01-27T14:30:30.742Z,102706.44
2023-01-27T14:33:05.718Z,102710.47
2023-01-27T14:35:42.141Z,102710.13
2023-01-27T14:38:17.287Z,102708.41
2023-01-27T14:41:00.426Z,102703.56
2023-01-27T14:43:38.528Z,102704.78
2023-01-27T14:46:15.380Z,102709.78
2023-01-27T14:48:58.974Z,102702.44
2023-01-27T14:51:40.691Z,102690.66
2023-01-27T14:54:29.835Z,102694.97
2023-01-27T14:57:16.308Z,102702.75
2023-01-27T14:59:53.669Z,102708.06
2023-01-27T15:02:34.986Z,102702.50
2023-01-27T15:05:12.194Z,102703.72
2023-01-27T15:07:48.373Z,102709.28
2023-01-27T15:10:31.615Z,102699.06
2023-01-27T15:13:27.737Z,102715.25
2023-01-27T15:16:17.481Z,102709.06
2023-01-27T15:19:12.490Z,102714.09
2023-01-27T15:22:13.004Z,102719.81
2023-01-27T15:25:00.365Z,102727.66
2023-01-27T15:27:30.080Z,102722.03
2023-01-27T15:30:07.099Z,102726.22
2023-01-27T15:32:38.868Z,102718.78
2023-01-27T15:35:36.389Z,102736.88
2023-01-27T15:38:20.045Z,102729.25
2023-01-27T15:41:07.258Z,102733.78
2023-01-27T15:43:40.470Z,102730.13
2023-01-27T15:46:29.913Z,102728.34
2023-01-27T15:49:01.703Z,102726.63
2023-01-27T15:51:32.919Z,102739.06
2023-01-27T15:54:01.583Z,102733.88
2023-01-27T15:56:46.982Z,102745.28
2023-01-27T15:59:19.638Z,102737.31
2023-01-27T16:01:51.015Z,102739.13
2023-01-27T16:04:26.036Z,102743.63
2023-01-27T16:07:02.218Z,102742.84
2023-01-27T16:09:40.811Z,102743.94
2023-01-27T16:12:32.705Z,102749.50
2023-01-27T16:15:35.444Z,102747.81
2023-01-27T16:18:28.167Z,102748.03
2023-01-27T16:21:02.610Z,102746.22
2023-01-27T16:23:50.576Z,102745.44
2023-01-27T16:26:30.483Z,102733.91
2023-01-27T16:29:16.790Z,102730.44
2023-01-27T16:31:51.259Z,102737.66
2023-01-27T16:34:26.261Z,102738.69
2023-01-27T16:37:04.382Z,102753.13
2023-01-27T16:39:39.591Z,102747.91
2023-01-27T16:42:15.453Z,102749.06
2023-01-27T16:44:47.909Z,102746.63
2023-01-27T16:47:22.658Z,102758.47
2023-01-27T16:49:53.387Z,102777.25
2023-01-27T16:52:41.176Z,102771.31
2023-01-27T16:55:22.009Z,102776.91
2023-01-27T16:57:51.888Z,102782.53
2023-01-27T17:00:24.776Z,102776.44
2023-01-27T17:02:55.121Z,102783.69
2023-01-27T17:05:25.459Z,102781.06
2023-01-27T17:08:05.470Z,102786.34
2023-01-27T17:10:36.754Z,102783.69
2023-01-27T17:13:06.111Z,102775.88
2023-01-27T17:15:42.168Z,102784.94
2023-01-27T17:18:12.307Z,102786.09
2023-01-27T17:20:44.258Z,102787.38
2023-01-27T17:23:22.995Z,102799.41
2023-01-27T17:25:51.972Z,102804.25
2023-01-27T17:28:31.386Z,102807.91
2023-01-27T17:31:07.684Z,102805.56
2023-01-27T17:33:38.524Z,102819.84
2023-01-27T17:36:11.135Z,102817.41
2023-01-27T17:38:46.770Z,102823.78
2023-01-27T17:41:31.123Z,102824.81
2023-01-27T17:44:01.744Z,102827.00
2023-01-27T17:46:34.372Z,102834.44
2023-01-27T17:49:07.617Z,102840.22
2023-01-27T17:51:39.035Z,102832.72
2023-01-27T17:54:22.103Z,102830.47
2023-01-27T17:56:53.748Z,102824.56
2023-01-27T17:59:27.756Z,102833.63
2023-01-27T18:02:20.755Z,102840.97
2023-01-27T18:04:51.444Z,102850.88
2023-01-27T18:07:31.979Z,102846.66
2023-01-27T18:10:01.573Z,102844.13
2023-01-27T18:12:35.669Z,102853.00
2023-01-27T18:15:52.408Z,102851.31
2023-01-27T18:18:29.774Z,102852.13
2023-01-27T18:21:06.882Z,102857.31
2023-01-27T18:23:38.878Z,102854.63
2023-01-27T18:26:15.454Z,102853.63
2023-01-27T18:28:50.871Z,102848.25
2023-01-27T18:31:23.654Z,102851.81
2023-01-27T18:34:41.802Z,102844.63
2023-01-27T18:37:45.402Z,102843.75
2023-01-27T18:43:21.026Z,102842.66
2023-01-27T18:46:06.758Z,102846.81
2023-01-27T18:51:59.320Z,102848.13
2023-01-27T18:58:13.403Z,102842.88
2023-01-27T19:00:57.163Z,102842.91
2023-01-27T19:03:35.003Z,102849.13
2023-01-27T19:06:36.750Z,102852.59
2023-01-27T19:09:16.675Z,102849.94
2023-01-27T19:11:46.478Z,102861.41
2023-01-27T19:14:31.613Z,102859.56
2023-01-27T19:19:56.988Z,102850.63
2023-01-27T19:22:40.480Z,102870.16
2023-01-27T19:25:16.205Z,102858.56
2023-01-27T19:27:53.831Z,102863.81
2023-01-27T19:30:28.978Z,102856.81
2023-01-27T19:33:32.847Z,102867.56
2023-01-27T19:36:38.897Z,102860.53
2023-01-27T19:40:02.518Z,102864.19
2023-01-27T19:42:33.633Z,102874.91
2023-01-27T19:45:22.435Z,102874.09
2023-01-27T19:47:54.497Z,102875.91
2023-01-27T19:50:41.779Z,102863.63
2023-01-27T20:02:50.285Z,102885.75
2023-01-27T20:05:36.322Z,102889.22
2023-01-27T20:08:15.792Z,102876.88
2023-01-27T20:10:48.264Z,102885.88
2023-01-27T20:13:24.776Z,102886.03
2023-01-27T20:15:55.115Z,102880.75
2023-01-27T20:18:24.016Z,102892.34
2023-01-27T20:20:52.380Z,102887.94
2023-01-27T20:23:21.119Z,102882.56
2023-01-27T20:25:53.903Z,102894.06
2023-01-27T20:28:27.931Z,102895.16
2023-01-27T20:30:57.862Z,102904.19
2023-01-27T20:33:25.961Z,102894.53
2023-01-27T20:35:55.957Z,102896.25
2023-01-27T20:38:24.167Z,102893.59
2023-01-27T20:40:52.292Z,102901.53
2023-01-27T20:43:33.694Z,102901.59
2023-01-27T20:46:08.990Z,102903.34
2023-01-27T20:48:37.136Z,102897.19
2023-01-27T20:51:07.405Z,102893.56
2023-01-27T20:53:41.628Z,102897.13
2023-01-27T20:56:10.677Z,102888.25
2023-01-27T20:58:38.977Z,102887.47
2023-01-27T21:01:11.813Z,102889.28
2023-01-27T21:03:41.014Z,102895.38
2023-01-27T21:06:10.097Z,102898.91
2023-01-27T21:08:39.245Z,102894.53
2023-01-27T21:11:10.918Z,102896.31
2023-01-27T21:13:39.041Z,102906.00
2023-01-27T21:16:09.029Z,102905.97
2023-01-27T21:18:37.554Z,102896.19
2023-01-27T21:21:06.729Z,102899.66
2023-01-27T21:23:35.815Z,102892.47
2023-01-27T21:26:05.363Z,102893.28
2023-01-27T21:28:34.930Z,102893.28
2023-01-27T21:31:08.946Z,102901.16
2023-01-27T21:33:37.829Z,102910.91
2023-01-27T21:36:08.672Z,102901.16
2023-01-27T21:38:38.938Z,102895.09
2023-01-27T21:41:07.771Z,102904.03
2023-01-27T21:43:54.321Z,102904.00
2023-01-27T21:46:25.177Z,102908.47
2023-01-27T21:48:53.203Z,102901.28
2023-01-27T21:51:21.509Z,102894.97
2023-01-27T21:53:49.539Z,102901.97
2023-01-27T21:56:17.807Z,102907.06
2023-01-27T21:58:45.802Z,102899.06
2023-01-27T22:01:16.662Z,102895.44
2023-01-27T22:03:46.789Z,102884.69
2023-01-27T22:06:15.624Z,102890.84
2023-01-27T22:08:43.777Z,102886.25
2023-01-27T22:11:12.744Z,102882.72
2023-01-27T22:13:40.820Z,102893.38
2023-01-27T22:16:13.793Z,102881.25
2023-01-27T22:18:42.340Z,102883.84
2023-01-27T22:21:12.137Z,102887.53
2023-01-27T22:23:40.616Z,102886.66
2023-01-27T22:26:10.156Z,102884.84
2023-01-27T22:28:38.229Z,102886.44
2023-01-27T22:31:06.671Z,102893.31
2023-01-27T22:33:34.848Z,102892.34
2023-01-27T22:36:04.358Z,102882.47
2023-01-27T22:38:38.082Z,102884.09
2023-01-27T22:41:06.176Z,102872.47
2023-01-27T22:43:34.296Z,102882.97
2023-01-27T22:46:03.040Z,102873.22
2023-01-27T22:48:31.900Z,102878.41
2023-01-27T22:51:04.551Z,102873.94
2023-01-27T22:53:35.282Z,102874.81
2023-01-27T22:56:05.619Z,102878.34
2023-01-27T22:58:33.785Z,102869.53
2023-01-27T23:01:01.854Z,102873.06
2023-01-27T23:03:30.030Z,102872.28
2023-01-27T23:05:58.114Z,102872.28
2023-01-27T23:08:26.331Z,102871.34
2023-01-27T23:11:01.608Z,102873.16
2023-01-27T23:13:30.851Z,102882.00
2023-01-27T23:15:59.335Z,102880.13
2023-01-27T23:18:27.622Z,102878.41
2023-01-27T23:20:55.785Z,102888.28
2023-01-27T23:23:24.226Z,102903.59
2023-01-27T23:25:52.320Z,102883.41
2023-01-27T23:28:21.911Z,102877.31
2023-01-27T23:30:51.511Z,102889.69
2023-01-27T23:33:20.909Z,102879.88
2023-01-27T23:35:49.278Z,102882.47
2023-01-27T23:38:31.717Z,102877.16
2023-01-27T23:41:02.743Z,102887.81
2023-01-27T23:43:32.462Z,102881.00
2023-01-27T23:46:01.144Z,102884.69
2023-01-27T23:48:29.240Z,102892.00
2023-01-27T23:50:57.381Z,102881.50
2023-01-27T23:53:25.621Z,102887.72
2023-01-27T23:55:57.975Z,102885.03
2023-01-27T23:58:27.357Z,102885.88
